Time;durP1;ratioP1;P1;durP2;ratioP2;P2;SDS_P1;SDS_P2;PMS_P1;PMS_P2;Temp;Humidity;BMP_temperature;BMP_pressure;BME280_temperature;BME280_humidity;BME280_pressure;Samples;Min_cycle;Max_cycle;Signal;HPM_P1;HPM_P2
2024/04/24 00:02:35;;;;;;;11.40;10.18;;;;;;;10.77;88.83;99518.13;5344986;26;20029;-77
2024/04/24 00:05:40;;;;;;;12.05;10.15;;;;;;;10.46;90.49;99519.53;5344972;26;20021;-75
2024/04/24 00:08:44;;;;;;;10.88;9.55;;;;;;;10.40;90.70;99512.09;5346152;26;20025;-77
2024/04/24 00:11:50;;;;;;;11.50;9.82;;;;;;;10.51;90.33;99514.56;5345955;26;20395;-78
2024/04/24 00:14:55;;;;;;;13.55;10.23;;;;;;;10.61;89.74;99504.59;5346398;26;20024;-77
2024/04/24 00:18:03;;;;;;;12.55;10.43;;;;;;;10.63;90.21;99497.22;5346324;26;20453;-77
2024/04/24 00:21:10;;;;;;;12.07;9.85;;;;;;;10.66;89.79;99493.38;5345851;26;20025;-79
2024/04/24 00:24:15;;;;;;;10.95;9.82;;;;;;;10.73;89.56;99497.13;5345944;26;20029;-78
2024/04/24 00:27:20;;;;;;;11.55;10.18;;;;;;;10.83;89.33;99487.97;5345585;26;20025;-80
2024/04/24 00:30:25;;;;;;;13.07;11.02;;;;;;;10.67;89.80;99493.22;5345624;26;20025;-81
2024/04/24 00:33:29;;;;;;;12.02;10.13;;;;;;;10.65;89.84;99487.16;5345710;26;20025;-78
2024/04/24 00:36:34;;;;;;;12.73;11.27;;;;;;;10.92;88.69;99481.66;5340758;26;20029;-79
2024/04/24 00:39:39;;;;;;;14.18;11.80;;;;;;;10.80;88.99;99496.34;5311436;27;20026;-78
2024/04/24 00:42:43;;;;;;;13.55;11.85;;;;;;;10.56;89.41;99485.41;5311317;27;20091;-78
2024/04/24 00:45:48;;;;;;;14.77;12.20;;;;;;;10.54;90.31;99487.44;5311237;27;20029;-77
2024/04/24 00:48:53;;;;;;;14.90;12.23;;;;;;;10.68;89.47;99484.16;5311071;27;20029;-81
2024/04/24 00:51:58;;;;;;;15.27;12.10;;;;;;;10.46;90.64;99490.03;5310948;27;20063;-76
2024/04/24 00:55:03;;;;;;;13.57;11.57;;;;;;;10.46;90.73;99484.66;5310926;27;20021;-76
2024/04/24 00:58:07;;;;;;;13.95;12.10;;;;;;;10.46;90.65;99490.03;5311129;27;20461;-79
2024/04/24 01:01:14;;;;;;;14.18;12.25;;;;;;;10.52;91.06;99483.22;5310970;27;20117;-78
2024/04/24 01:04:18;;;;;;;14.30;12.23;;;;;;;10.45;90.95;99480.28;5313952;27;20376;-77
2024/04/24 01:07:23;;;;;;;13.98;11.90;;;;;;;10.33;91.90;99485.06;5314835;27;20026;-78
2024/04/24 01:10:28;;;;;;;14.55;11.73;;;;;;;10.42;91.62;99484.13;5314027;27;20373;-76
2024/04/24 01:13:32;;;;;;;14.73;12.63;;;;;;;10.51;91.23;99486.88;5313877;27;20026;-78
2024/04/24 01:16:39;;;;;;;13.82;12.27;;;;;;;10.54;90.55;99475.84;5313774;27;20026;-76
2024/04/24 01:19:50;;;;;;;14.77;12.38;;;;;;;10.30;91.93;99473.78;5312569;27;20021;-78
2024/04/24 01:23:33;;;;;;;14.07;12.32;;;;;;;10.40;92.39;99474.53;5312812;27;20022;-80
2024/04/24 01:26:49;;;;;;;17.10;13.52;;;;;;;10.44;92.13;99473.25;5313660;27;20485;-78
2024/04/24 01:29:53;;;;;;;15.20;12.40;;;;;;;10.44;92.11;99467.88;5318078;26;20025;-79
2024/04/24 01:32:58;;;;;;;15.32;12.73;;;;;;;10.40;91.67;99470.03;5348468;26;20024;-78
2024/04/24 01:36:03;;;;;;;15.63;12.85;;;;;;;10.44;92.15;99465.19;5348243;26;20367;-79
2024/04/24 01:39:08;;;;;;;16.00;12.45;;;;;;;10.31;92.60;99470.97;5348335;26;20025;-80
2024/04/24 01:42:13;;;;;;;16.05;12.77;;;;;;;10.30;92.83;99465.72;5348119;26;20025;-79
2024/04/24 01:45:18;;;;;;;16.40;13.65;;;;;;;10.26;93.16;99461.69;5348274;26;20025;-82
2024/04/24 01:48:22;;;;;;;14.35;12.05;;;;;;;10.34;93.46;99467.94;5348342;26;20025;-81
2024/04/24 01:51:27;;;;;;;13.48;12.05;;;;;;;10.38;93.28;99465.81;5348088;26;20020;-79
2024/04/24 01:54:31;;;;;;;13.68;11.02;;;;;;;10.44;93.05;99465.19;5347127;26;20025;-78
2024/04/24 01:57:35;;;;;;;13.38;10.77;;;;;;;10.37;93.15;99464.97;5348119;26;20029;-76
2024/04/24 02:00:40;;;;;;;15.77;11.52;;;;;;;10.47;92.91;99461.38;5348302;26;20457;-77
2024/04/24 02:03:44;;;;;;;10.52;9.25;;;;;;;10.71;91.17;99454.34;5348203;26;20020;-79
2024/04/24 02:06:49;;;;;;;12.63;10.18;;;;;;;11.03;89.58;99462.59;5346867;26;20040;-77
2024/04/24 02:09:54;;;;;;;12.05;9.77;;;;;;;10.77;90.58;99464.44;5347240;26;20021;-82
2024/04/24 02:12:58;;;;;;;10.65;8.57;;;;;;;10.72;90.69;99464.06;5347958;26;20143;-78
2024/04/24 02:16:03;;;;;;;9.55;8.25;;;;;;;10.73;90.74;99460.38;5348106;26;20468;-80
2024/04/24 02:19:07;;;;;;;8.80;7.85;;;;;;;10.99;89.37;99461.22;5347021;26;20048;-79
2024/04/24 02:22:12;;;;;;;10.93;7.20;;;;;;;10.86;90.14;99458.09;5347883;26;20029;-77
2024/04/24 02:25:36;;;;;;;8.73;7.60;;;;;;;10.65;90.67;99463.00;5347927;26;20037;-80
2024/04/24 02:28:41;;;;;;;7.97;6.38;;;;;;;10.93;89.73;99450.28;5347269;26;20025;-78
2024/04/24 02:31:46;;;;;;;7.88;6.15;;;;;;;10.91;89.73;99452.28;5346687;26;20021;-78
2024/04/24 02:34:50;;;;;;;7.65;6.70;;;;;;;10.72;90.24;99452.47;5313315;27;20029;-76
2024/04/24 02:37:55;;;;;;;7.65;6.15;;;;;;;10.68;90.82;99460.00;5313204;27;20457;-81
2024/04/24 02:40:59;;;;;;;6.25;5.60;;;;;;;10.52;91.38;99453.69;5313107;27;20025;-77
2024/04/24 02:44:04;;;;;;;6.47;5.18;;;;;;;10.81;89.74;99451.56;5313075;27;20026;-79
2024/04/24 02:47:09;;;;;;;6.57;5.88;;;;;;;10.69;90.31;99456.31;5313137;27;20320;-77
2024/04/24 02:50:13;;;;;;;6.25;5.43;;;;;;;10.62;90.56;99449.91;5312819;26;20041;-79
2024/04/24 02:53:18;;;;;;;5.75;4.88;;;;;;;10.61;90.24;99455.44;5313640;27;20022;-78
2024/04/24 02:56:23;;;;;;;5.75;4.47;;;;;;;10.76;89.68;99461.91;5312921;27;20357;-81
2024/04/24 02:59:27;;;;;;;5.20;4.28;;;;;;;10.74;88.96;99451.31;5312109;27;20029;-79
2024/04/24 03:02:32;;;;;;;4.90;3.88;;;;;;;10.61;89.98;99448.22;5313525;27;20021;-78
2024/04/24 03:05:37;;;;;;;4.25;3.53;;;;;;;10.59;89.88;99452.88;5313051;27;20026;-77
2024/04/24 03:08:42;;;;;;;4.50;3.97;;;;;;;10.56;89.72;99450.53;5312865;27;20025;-81
2024/04/24 03:11:46;;;;;;;4.97;3.85;;;;;;;10.44;89.61;99460.66;5312610;27;20380;-79
2024/04/24 03:14:51;;;;;;;4.68;3.40;;;;;;;10.48;89.60;99458.53;5312816;27;20029;-77
2024/04/24 03:17:56;;;;;;;4.10;3.50;;;;;;;10.33;89.81;99455.56;5313148;27;20461;-80
2024/04/24 03:21:01;;;;;;;3.83;3.15;;;;;;;10.09;90.57;99455.31;5312612;27;20368;-80
2024/04/24 03:24:07;;;;;;;3.33;2.10;;;;;;;9.77;90.52;99461.19;5313022;27;20455;-78
2024/04/24 03:27:11;;;;;;;3.85;2.47;;;;;;;9.77;90.96;99463.03;5311239;27;20461;-80
2024/04/24 03:30:16;;;;;;;3.83;1.90;;;;;;;9.72;91.50;99468.00;5312721;27;20021;-81
2024/04/24 03:33:20;;;;;;;2.80;1.92;;;;;;;9.74;90.59;99464.16;5311733;27;20469;-78
2024/04/24 03:36:25;;;;;;;2.35;1.45;;;;;;;9.65;90.56;99461.56;5312270;27;20033;-80
2024/04/24 03:39:29;;;;;;;2.67;1.40;;;;;;;9.30;90.99;99453.44;5312392;27;20453;-78
2024/04/24 03:42:34;;;;;;;2.92;1.45;;;;;;;9.28;90.85;99458.09;5312431;27;20022;-78
2024/04/24 03:45:39;;;;;;;2.25;1.13;;;;;;;9.01;91.73;99449.03;5312257;27;20025;-81
2024/04/24 03:48:44;;;;;;;3.65;1.23;;;;;;;9.14;91.58;99448.69;5312456;27;20029;-80
2024/04/24 03:51:49;;;;;;;1.88;1.13;;;;;;;8.93;91.40;99451.63;5312332;27;20370;-82
2024/04/24 03:54:53;;;;;;;2.38;1.15;;;;;;;8.81;91.83;99454.63;5312513;27;20025;-80
2024/04/24 03:57:58;;;;;;;2.20;1.30;;;;;;;8.74;92.04;99450.84;5312153;27;20368;-80
2024/04/24 04:01:02;;;;;;;2.67;1.05;;;;;;;8.77;91.98;99453.19;5312278;27;20025;-79
2024/04/24 04:04:07;;;;;;;2.20;1.30;;;;;;;8.85;92.39;99450.66;5312005;27;20033;-81
2024/04/24 04:07:12;;;;;;;3.03;1.73;;;;;;;8.86;92.31;99460.38;5312100;27;20026;-80
2024/04/24 04:10:17;;;;;;;2.13;1.17;;;;;;;8.92;92.29;99452.59;5312135;27;20033;-83
2024/04/24 04:13:21;;;;;;;2.10;1.00;;;;;;;8.62;92.33;99455.50;5310777;27;20029;-77
2024/04/24 04:16:28;;;;;;;3.13;1.10;;;;;;;8.71;91.57;99456.47;5311896;27;20029;-80
2024/04/24 04:19:32;;;;;;;2.00;1.10;;;;;;;8.49;92.27;99455.78;5311865;27;20031;-76
2024/04/24 04:22:37;;;;;;;2.00;1.10;;;;;;;8.39;92.53;99454.97;5311806;27;20022;-79
2024/04/24 04:25:42;;;;;;;4.15;1.63;;;;;;;8.26;93.37;99457.09;5311802;27;20425;-78
2024/04/24 04:28:47;;;;;;;5.18;1.67;;;;;;;8.41;92.27;99455.69;5311819;27;20469;-79
2024/04/24 04:31:52;;;;;;;2.90;1.50;;;;;;;8.58;91.91;99453.25;5344597;26;20360;-78
2024/04/24 04:34:56;;;;;;;2.72;1.50;;;;;;;8.61;91.92;99452.97;5325120;26;20025;-82
2024/04/24 04:38:01;;;;;;;3.65;2.05;;;;;;;8.46;91.88;99458.78;5347417;26;20367;-78
2024/04/24 04:41:05;;;;;;;3.10;1.60;;;;;;;8.70;90.87;99454.78;5328138;26;20032;-80
2024/04/24 04:44:10;;;;;;;2.60;1.75;;;;;;;8.50;91.54;99452.16;5349261;26;20021;-77
2024/04/24 04:47:15;;;;;;;2.42;1.42;;;;;;;8.49;91.22;99445.09;5349180;26;20029;-76
2024/04/24 04:50:20;;;;;;;2.63;1.20;;;;;;;8.22;92.47;99449.50;5349344;26;20032;-80
2024/04/24 04:53:25;;;;;;;3.15;1.27;;;;;;;8.57;91.43;99455.06;5348432;26;20033;-81
2024/04/24 04:56:29;;;;;;;2.10;1.10;;;;;;;8.45;91.50;99453.56;5348743;26;20396;-77
2024/04/24 04:59:34;;;;;;;2.90;1.58;;;;;;;8.65;90.50;99449.00;5347128;26;20041;-79
2024/04/24 05:02:39;;;;;;;3.42;1.33;;;;;;;8.55;90.82;99451.72;5347595;26;20021;-78
2024/04/24 05:05:43;;;;;;;2.53;1.50;;;;;;;8.43;90.70;99450.19;5345897;26;20037;-81
2024/04/24 05:08:48;;;;;;;2.28;1.40;;;;;;;8.32;91.10;99451.19;5314415;27;20461;-78
2024/04/24 05:11:53;;;;;;;3.30;1.60;;;;;;;8.52;90.49;99451.16;5314110;27;20369;-80
2024/04/24 05:14:57;;;;;;;2.30;1.30;;;;;;;8.79;89.42;99451.25;5314168;27;20026;-77
2024/04/24 05:18:06;;;;;;;5.82;1.65;;;;;;;8.85;88.91;99454.19;5314102;27;20025;-78
2024/04/24 05:21:11;;;;;;;2.83;1.52;;;;;;;8.85;88.83;99458.69;5332013;26;20366;-81
2024/04/24 05:24:16;;;;;;;2.40;1.45;;;;;;;8.86;88.70;99463.06;5345607;26;20021;-80
2024/04/24 05:30:44;;;;;;;2.15;1.13;;;;;;;8.31;90.05;99462.03;5314106;27;20579;-80
2024/04/24 05:33:49;;;;;;;1.77;1.10;;;;;;;8.46;89.78;99458.78;5314150;27;20033;-74
2024/04/24 05:36:53;;;;;;;1.85;1.00;;;;;;;8.47;90.22;99460.44;5335146;26;20032;-75
2024/04/24 05:39:58;;;;;;;2.22;1.15;;;;;;;8.47;90.57;99462.28;5348458;26;20029;-72
2024/04/24 05:43:06;;;;;;;1.88;0.90;;;;;;;8.52;89.01;99459.19;5346474;26;20036;-76
2024/04/24 05:46:11;;;;;;;3.13;1.00;;;;;;;8.60;89.88;99461.97;5308536;26;20360;-76
2024/04/24 05:49:16;;;;;;;8.68;4.43;;;;;;;8.58;89.87;99464.81;5347611;26;20041;-75
2024/04/24 05:52:21;;;;;;;4.68;1.63;;;;;;;8.59;89.94;99466.50;5346595;26;20029;-75
2024/04/24 05:55:26;;;;;;;4.32;2.80;;;;;;;8.77;89.06;99470.09;5348196;26;20029;-75
2024/04/24 05:58:31;;;;;;;5.75;2.53;;;;;;;8.67;89.46;99465.75;5348217;26;20025;-73
2024/04/24 06:01:36;;;;;;;3.35;2.05;;;;;;;8.74;90.28;99464.22;5347329;26;20025;-73
2024/04/24 06:04:41;;;;;;;8.20;5.22;;;;;;;8.83;89.39;99464.19;5348354;26;20025;-75
2024/04/24 06:07:45;;;;;;;6.32;3.72;;;;;;;8.68;89.80;99462.09;5348104;26;20424;-73
2024/04/24 06:10:50;;;;;;;2.75;1.63;;;;;;;8.68;89.58;99465.63;5348217;26;20037;-73
2024/04/24 06:13:55;;;;;;;4.03;2.33;;;;;;;8.99;88.69;99468.91;5348172;26;20032;-73
2024/04/24 06:16:59;;;;;;;5.05;1.65;;;;;;;8.83;89.25;99466.00;5346791;26;20028;-73
2024/04/24 06:20:04;;;;;;;2.88;1.70;;;;;;;8.49;89.59;99460.31;5340879;26;20030;-72
2024/04/24 06:23:10;;;;;;;3.13;1.70;;;;;;;8.63;89.97;99467.03;5346476;26;20029;-71
2024/04/24 06:29:22;;;;;;;2.25;1.30;;;;;;;8.67;89.74;99479.13;5354835;26;20032;-72
2024/04/24 06:32:28;;;;;;;2.97;1.50;;;;;;;8.88;89.15;99471.78;5313903;27;20026;-72
2024/04/24 06:35:34;;;;;;;2.22;1.20;;;;;;;8.75;88.53;99468.56;5312371;27;20023;-72
2024/04/24 06:38:39;;;;;;;4.80;1.45;;;;;;;8.80;88.73;99463.63;5312363;27;20025;-72
2024/04/24 06:41:43;;;;;;;2.38;1.40;;;;;;;9.05;88.66;99468.34;5364221;26;20037;-74
2024/04/24 06:44:48;;;;;;;2.10;1.40;;;;;;;9.36;88.21;99464.38;5382478;26;20020;-80
2024/04/24 06:47:53;;;;;;;4.30;1.80;;;;;;;9.26;87.25;99460.91;5382281;26;20020;-74
2024/04/24 06:51:01;;;;;;;1.60;0.90;;;;;;;8.94;88.25;99469.34;5381874;26;20491;-74
2024/04/24 06:54:06;;;;;;;1.80;1.00;;;;;;;9.11;87.76;99468.56;5365651;26;20029;-77
2024/04/24 06:57:12;;;;;;;2.60;0.85;;;;;;;8.98;88.10;99469.91;5322657;26;20016;-78
2024/04/24 07:00:17;;;;;;;1.60;0.80;;;;;;;9.06;87.82;99468.16;5327485;26;20042;-75
2024/04/24 07:03:26;;;;;;;3.60;2.10;;;;;;;9.18;88.23;99475.03;5347312;26;20345;-77
2024/04/24 07:06:32;;;;;;;3.40;1.92;;;;;;;9.60;86.97;99466.53;5337980;26;20037;-78
2024/04/24 07:09:37;;;;;;;2.33;1.30;;;;;;;9.42;87.29;99476.34;5342589;26;20045;-77
2024/04/24 07:12:41;;;;;;;3.55;1.38;;;;;;;9.26;87.02;99476.97;5349342;26;20032;-76
2024/04/24 07:15:47;;;;;;;6.15;1.50;;;;;;;9.18;87.50;99482.25;5348420;26;20032;-75
2024/04/24 07:18:51;;;;;;;3.42;1.60;;;;;;;9.33;87.60;99474.56;5312278;27;20030;-75
2024/04/24 07:21:57;;;;;;;3.67;1.70;;;;;;;9.66;87.15;99480.16;5324721;26;20032;-75
2024/04/24 07:25:01;;;;;;;4.50;1.38;;;;;;;9.69;87.17;99476.31;5309060;27;20088;-77
2024/04/24 07:28:06;;;;;;;3.70;1.77;;;;;;;9.58;87.25;99480.06;5308735;27;20485;-76
2024/04/24 07:31:11;;;;;;;3.22;1.45;;;;;;;9.95;86.16;99481.81;5308839;27;20037;-77
2024/04/24 07:34:15;;;;;;;6.90;3.42;;;;;;;9.76;87.14;99480.94;5321875;26;20036;-77
2024/04/24 07:37:20;;;;;;;4.95;2.92;;;;;;;9.77;86.23;99482.63;5294914;27;20033;-76
2024/04/24 07:40:25;;;;;;;9.45;5.60;;;;;;;10.06;86.67;99482.41;5305604;26;20033;-78
2024/04/24 07:43:29;;;;;;;7.30;3.70;;;;;;;10.16;86.25;99487.75;5279887;27;20034;-80
2024/04/24 07:46:34;;;;;;;6.35;3.47;;;;;;;10.21;85.75;99485.44;5274498;27;20041;-79
2024/04/24 07:49:39;;;;;;;5.57;2.60;;;;;;;10.19;86.00;99490.97;5303949;27;20034;-78
2024/04/24 07:52:44;;;;;;;4.13;2.47;;;;;;;10.56;85.03;99492.63;5308568;27;20400;-80
2024/04/24 07:55:49;;;;;;;3.80;1.98;;;;;;;10.44;85.22;99494.72;5327901;26;20029;-80
2024/04/24 07:58:54;;;;;;;10.35;5.68;;;;;;;10.82;84.55;99496.16;5346324;26;20372;-74
2024/04/24 08:02:01;;;;;;;3.22;1.85;;;;;;;10.78;84.29;99497.50;5311869;27;20030;-74
2024/04/24 08:05:06;;;;;;;4.00;1.38;;;;;;;11.06;84.15;99501.69;5327373;26;20029;-74
2024/04/24 08:08:11;;;;;;;10.10;5.00;;;;;;;10.92;84.46;99487.03;5345798;26;20037;-73
2024/04/24 08:11:15;;;;;;;12.15;7.28;;;;;;;10.99;83.91;99493.44;5343622;26;20463;-74
2024/04/24 08:14:20;;;;;;;3.95;2.30;;;;;;;11.11;83.90;99500.22;5348118;26;20595;-74
2024/04/24 08:17:25;;;;;;;5.15;3.35;;;;;;;11.33;83.21;99504.19;5347858;26;20379;-74
2024/04/24 08:20:30;;;;;;;5.80;3.45;;;;;;;11.82;81.92;99502.59;5348100;26;20028;-73
2024/04/24 08:23:35;;;;;;;6.30;1.70;;;;;;;11.89;80.70;99509.00;5349164;26;20029;-74
2024/04/24 08:26:40;;;;;;;3.47;1.65;;;;;;;12.69;78.91;99510.97;5349086;26;20032;-74
2024/04/24 08:29:45;;;;;;;2.47;1.40;;;;;;;13.00;76.99;99508.41;5348114;26;20033;-75
2024/04/24 08:32:51;;;;;;;2.25;1.45;;;;;;;13.21;75.70;99510.63;5349003;26;20028;-73
2024/04/24 08:36:05;;;;;;;2.88;1.65;;;;;;;13.70;75.07;99518.34;5346815;26;20029;-74
2024/04/24 08:39:14;;;;;;;2.10;1.27;;;;;;;14.04;73.52;99514.50;5345876;26;20025;-75
2024/04/24 08:42:19;;;;;;;4.47;1.48;;;;;;;14.60;71.92;99506.03;5348301;26;20033;-74
2024/04/24 08:45:25;;;;;;;2.20;1.30;;;;;;;14.62;71.05;99519.34;5347705;26;20029;-74
2024/04/24 08:48:32;;;;;;;2.03;1.40;;;;;;;14.55;70.24;99521.94;5347491;26;20029;-74
2024/04/24 08:51:39;;;;;;;3.88;1.85;;;;;;;14.63;70.58;99524.59;5348344;26;20029;-74
2024/04/24 08:54:44;;;;;;;3.03;1.50;;;;;;;14.58;71.85;99526.16;5315656;26;20368;-74
2024/04/24 08:57:52;;;;;;;2.95;2.03;;;;;;;14.54;70.57;99519.44;5314182;27;20029;-74
2024/04/24 09:01:00;;;;;;;3.33;2.35;;;;;;;14.71;69.20;99523.69;5312983;26;20029;-74
2024/04/24 09:04:06;;;;;;;2.72;1.77;;;;;;;14.82;69.03;99517.84;5313725;27;20034;-77
2024/04/24 09:07:12;;;;;;;2.88;1.85;;;;;;;15.12;69.17;99524.16;5310644;27;20034;-80
2024/04/24 09:10:17;;;;;;;6.07;3.20;;;;;;;15.04;68.71;99527.78;5312888;26;20504;-78
2024/04/24 09:13:24;;;;;;;9.93;7.68;;;;;;;14.76;69.81;99524.81;5313730;27;20029;-78
2024/04/24 09:16:34;;;;;;;4.90;3.20;;;;;;;14.52;70.74;99526.84;5313071;26;20029;-78
2024/04/24 09:19:39;;;;;;;3.38;2.30;;;;;;;14.40;69.91;99531.00;5312547;26;20029;-78
2024/04/24 09:22:48;;;;;;;3.35;2.10;;;;;;;14.36;68.55;99526.97;5313351;27;20034;-80
2024/04/24 09:25:55;;;;;;;3.90;2.22;;;;;;;14.32;68.75;99526.47;5312541;26;20029;-81
2024/04/24 09:28:59;;;;;;;3.97;2.30;;;;;;;14.40;69.89;99526.44;5313560;27;20033;-81
2024/04/24 09:32:07;;;;;;;3.30;2.45;;;;;;;14.74;69.42;99526.03;5312981;27;20380;-77
2024/04/24 09:35:12;;;;;;;4.30;2.22;;;;;;;14.95;68.68;99529.72;5313317;27;20037;-75
2024/04/24 09:38:17;;;;;;;3.67;2.55;;;;;;;15.13;67.35;99531.25;5313898;27;20029;-81
2024/04/24 09:41:22;;;;;;;3.28;2.05;;;;;;;15.50;66.20;99531.25;5313393;27;20029;-81
2024/04/24 09:44:28;;;;;;;3.05;1.95;;;;;;;15.88;64.27;99530.09;5313482;27;20028;-78
2024/04/24 09:47:33;;;;;;;4.00;2.25;;;;;;;16.23;61.87;99525.72;5313450;27;20029;-79
2024/04/24 09:50:38;;;;;;;3.25;2.10;;;;;;;16.34;61.16;99522.53;5328144;26;20032;-78
2024/04/24 09:53:44;;;;;;;3.97;2.45;;;;;;;16.70;61.43;99525.22;5348026;26;20029;-74
2024/04/24 09:56:59;;;;;;;3.58;2.20;;;;;;;17.10;60.39;99529.13;5347935;26;20032;-78
2024/04/24 10:00:08;;;;;;;3.03;2.13;;;;;;;17.09;57.19;99527.44;5348074;26;20032;-75
2024/04/24 10:03:22;;;;;;;3.55;2.05;;;;;;;17.10;55.79;99527.25;5347855;26;20048;-75
2024/04/24 10:06:28;;;;;;;3.30;1.95;;;;;;;17.22;54.40;99512.09;5347785;26;20464;-77
2024/04/24 10:09:35;;;;;;;3.15;2.05;;;;;;;16.95;55.27;99517.50;5326518;26;20035;-77
2024/04/24 10:12:44;;;;;;;4.22;2.03;;;;;;;16.98;55.28;99514.41;5347738;26;20029;-77
2024/04/24 10:16:02;;;;;;;5.65;1.70;;;;;;;16.90;55.45;99508.09;5347339;26;20375;-76
2024/04/24 10:19:09;;;;;;;2.30;1.70;;;;;;;16.68;54.70;99497.47;5326492;26;20084;-83
2024/04/24 10:22:14;;;;;;;2.60;1.58;;;;;;;16.58;55.54;99507.78;5346198;26;20464;-77
2024/04/24 10:25:21;;;;;;;4.72;2.10;;;;;;;16.86;56.17;99506.00;5347073;26;20033;-76
2024/04/24 10:28:27;;;;;;;4.07;2.08;;;;;;;16.11;56.79;99501.03;5325642;26;20025;-77
2024/04/24 10:31:33;;;;;;;3.17;2.00;;;;;;;16.69;55.06;99508.09;5346266;26;20480;-78
2024/04/24 10:34:38;;;;;;;4.40;2.60;;;;;;;17.04;55.30;99498.19;5347082;26;20028;-76
2024/04/24 10:37:48;;;;;;;3.55;2.00;;;;;;;17.14;54.84;99498.69;5347056;26;20149;-78
2024/04/24 10:40:54;;;;;;;2.28;1.27;;;;;;;16.67;53.69;99495.78;5347486;26;20028;-77
2024/04/24 10:43:58;;;;;;;2.30;1.45;;;;;;;16.25;53.98;99502.84;5347540;26;20029;-76
2024/04/24 10:47:05;;;;;;;2.58;1.55;;;;;;;15.96;55.05;99497.50;5347363;26;20029;-79
2024/04/24 10:50:14;;;;;;;2.92;1.83;;;;;;;16.01;56.36;99497.78;5325815;26;20036;-76
2024/04/24 10:53:19;;;;;;;2.90;1.85;;;;;;;15.80;56.88;99497.72;5347313;26;20383;-77
2024/04/24 10:56:31;;;;;;;2.80;2.03;;;;;;;15.99;57.00;99496.28;5343186;26;20367;-76
2024/04/24 10:59:38;;;;;;;2.85;1.60;;;;;;;16.18;56.96;99493.81;5347081;26;20025;-76
2024/04/24 11:02:45;;;;;;;2.78;1.33;;;;;;;15.90;56.97;99484.72;5347117;26;20028;-75
2024/04/24 11:05:50;;;;;;;2.20;1.30;;;;;;;15.52;57.32;99488.59;5346003;26;20029;-79
2024/04/24 11:08:56;;;;;;;2.55;1.65;;;;;;;15.50;58.58;99486.06;5346280;26;20021;-75
2024/04/24 11:12:03;;;;;;;3.17;1.70;;;;;;;15.48;60.48;99495.44;5346358;26;20048;-76
2024/04/24 11:15:22;;;;;;;5.68;2.33;;;;;;;15.68;61.42;99482.97;5344257;26;20085;-76
2024/04/24 11:18:27;;;;;;;2.70;2.00;;;;;;;15.98;61.54;99476.50;5346774;26;20029;-76
2024/04/24 11:21:33;;;;;;;3.30;2.40;;;;;;;16.03;61.44;99486.75;5346651;26;20032;-77
2024/04/24 11:24:38;;;;;;;3.78;2.15;;;;;;;16.12;59.36;99470.19;5346784;26;20033;-76
2024/04/24 11:27:44;;;;;;;2.70;1.90;;;;;;;16.18;58.89;99469.44;5346706;26;20032;-77
2024/04/24 11:30:49;;;;;;;2.58;1.67;;;;;;;16.16;57.90;99466.09;5346675;26;20029;-76
2024/04/24 11:33:54;;;;;;;2.63;1.80;;;;;;;16.34;57.93;99472.94;5344300;26;20036;-73
2024/04/24 11:36:59;;;;;;;2.88;1.40;;;;;;;16.12;59.37;99472.91;5322561;26;20025;-73
2024/04/24 11:40:06;;;;;;;5.03;1.52;;;;;;;15.42;60.32;99475.34;5344710;26;20029;-73
2024/04/24 11:43:11;;;;;;;2.88;1.80;;;;;;;15.53;61.70;99469.47;5324987;26;20029;-73
2024/04/24 11:46:19;;;;;;;3.13;2.00;;;;;;;15.43;61.36;99466.19;5344859;26;20028;-73
2024/04/24 11:49:25;;;;;;;3.22;2.10;;;;;;;15.70;62.20;99462.00;5345563;26;20481;-72
2024/04/24 11:52:37;;;;;;;2.95;1.88;;;;;;;15.75;59.80;99462.25;5310656;27;20478;-73
2024/04/24 11:55:43;;;;;;;2.90;1.95;;;;;;;15.15;60.37;99459.75;5291408;27;20041;-73
2024/04/24 11:58:48;;;;;;;2.80;1.80;;;;;;;15.82;58.17;99451.53;5309636;27;20048;-74
2024/04/24 12:01:53;;;;;;;2.80;1.98;;;;;;;15.60;59.49;99445.25;5308560;27;20021;-74
2024/04/24 12:05:01;;;;;;;3.25;1.80;;;;;;;15.50;60.57;99448.19;5311583;26;20026;-75
2024/04/24 12:08:07;;;;;;;2.65;1.42;;;;;;;15.19;59.48;99446.69;5316202;26;20030;-75
2024/04/24 12:11:13;;;;;;;2.60;1.80;;;;;;;15.23;59.20;99450.72;5310820;27;20029;-76
2024/04/24 12:14:18;;;;;;;2.70;1.60;;;;;;;15.46;58.27;99449.63;5311476;27;20033;-76
2024/04/24 12:17:23;;;;;;;3.08;1.73;;;;;;;15.21;58.92;99448.19;5311353;27;20026;-76
2024/04/24 12:20:28;;;;;;;2.33;1.30;;;;;;;15.09;58.84;99444.28;5310782;27;20029;-77
2024/04/24 12:23:33;;;;;;;3.22;2.00;;;;;;;15.14;58.83;99441.84;5290621;27;20037;-77
2024/04/24 12:26:38;;;;;;;2.33;1.55;;;;;;;15.16;60.34;99439.78;5323898;26;20030;-77
2024/04/24 12:29:43;;;;;;;4.25;1.70;;;;;;;15.07;59.85;99440.06;5323978;26;20038;-77
2024/04/24 12:32:48;;;;;;;2.78;1.60;;;;;;;15.70;58.70;99432.25;5328968;26;20036;-76
2024/04/24 12:35:53;;;;;;;2.25;1.52;;;;;;;15.79;58.08;99431.09;5310518;26;20029;-78
2024/04/24 12:38:57;;;;;;;3.65;1.60;;;;;;;15.91;59.01;99424.16;5346086;26;20064;-75
2024/04/24 12:42:03;;;;;;;2.55;1.55;;;;;;;16.19;57.63;99430.50;5345714;26;20037;-75
2024/04/24 12:45:08;;;;;;;2.60;1.67;;;;;;;15.87;57.65;99422.88;5345425;26;20041;-77
2024/04/24 12:48:13;;;;;;;2.67;1.25;;;;;;;16.05;54.59;99425.13;5325004;26;20025;-75
2024/04/24 12:51:18;;;;;;;2.20;1.38;;;;;;;15.67;56.41;99419.09;5370046;26;20035;-78
2024/04/24 12:54:23;;;;;;;2.20;1.40;;;;;;;15.83;57.17;99413.44;5380516;26;20428;-78
2024/04/24 12:57:28;;;;;;;3.22;1.40;;;;;;;15.92;57.69;99409.63;5380543;26;20024;-79
2024/04/24 13:00:32;;;;;;;3.72;1.33;;;;;;;15.91;59.87;99404.38;5384300;26;20032;-79
2024/04/24 13:03:37;;;;;;;4.82;1.88;;;;;;;15.40;60.33;99403.53;5362264;26;20032;-78
2024/04/24 13:06:42;;;;;;;3.08;2.20;;;;;;;15.54;61.73;99402.69;5383952;26;20028;-78
2024/04/24 13:09:48;;;;;;;3.15;2.00;;;;;;;15.35;62.25;99400.56;5383835;26;20468;-75
2024/04/24 13:12:53;;;;;;;3.67;2.20;;;;;;;15.14;63.30;99400.47;5382370;26;20466;-76
2024/04/24 13:15:58;;;;;;;3.33;2.33;;;;;;;14.94;64.14;99394.78;5348567;26;20032;-77
2024/04/24 13:19:04;;;;;;;3.75;2.83;;;;;;;14.89;64.93;99402.59;5347449;26;20029;-77
2024/04/24 13:22:09;;;;;;;4.22;2.53;;;;;;;14.97;63.55;99397.97;5327802;26;20042;-76
2024/04/24 13:25:14;;;;;;;5.10;2.42;;;;;;;14.75;64.61;99377.25;5347518;26;20037;-77
2024/04/24 13:28:20;;;;;;;3.70;2.60;;;;;;;15.16;63.60;99382.22;5346366;26;20032;-77
2024/04/24 13:31:25;;;;;;;4.10;2.80;;;;;;;14.59;63.56;99384.69;5347459;26;20375;-76
2024/04/24 13:34:30;;;;;;;2.47;1.80;;;;;;;15.13;63.67;99378.03;5347345;26;20029;-78
2024/04/24 13:37:36;;;;;;;3.67;1.90;;;;;;;15.27;63.79;99376.31;5348386;26;20032;-79
2024/04/24 13:40:42;;;;;;;2.50;1.75;;;;;;;15.29;61.86;99383.22;5347597;26;20032;-79
2024/04/24 13:43:54;;;;;;;3.83;2.17;;;;;;;15.21;62.54;99377.09;5347444;26;20033;-78
2024/04/24 13:46:59;;;;;;;3.67;2.25;;;;;;;15.26;62.53;99369.22;5348566;26;20032;-81
2024/04/24 13:50:09;;;;;;;2.75;1.70;;;;;;;15.35;63.18;99362.69;5348047;26;20036;-81
2024/04/24 13:53:16;;;;;;;4.47;1.85;;;;;;;15.32;62.73;99353.09;5348224;26;20029;-79
2024/04/24 13:56:20;;;;;;;2.50;1.90;;;;;;;15.50;62.25;99358.13;5327473;26;20037;-79
2024/04/24 13:59:25;;;;;;;2.50;1.60;;;;;;;15.63;58.66;99352.84;5327105;26;20037;-78
2024/04/24 14:02:29;;;;;;;2.38;1.85;;;;;;;15.60;60.91;99350.56;5326801;26;20037;-79
2024/04/24 14:05:34;;;;;;;3.00;1.95;;;;;;;15.31;61.27;99350.56;5347875;26;20032;-76
2024/04/24 14:08:40;;;;;;;2.65;1.50;;;;;;;15.27;61.37;99347.41;5327053;26;20044;-75
2024/04/24 14:11:47;;;;;;;2.33;1.65;;;;;;;15.51;60.27;99336.28;5347794;26;20033;-77
2024/04/24 14:14:52;;;;;;;3.17;1.80;;;;;;;15.38;61.86;99340.69;5326674;26;20033;-77
2024/04/24 14:17:57;;;;;;;2.72;1.90;;;;;;;15.02;58.69;99337.94;5327140;26;20033;-78
2024/04/24 14:21:03;;;;;;;2.03;1.33;;;;;;;15.35;59.81;99330.25;5347320;26;20029;-76
2024/04/24 14:24:08;;;;;;;4.13;1.50;;;;;;;15.58;59.58;99341.75;5275828;27;20043;-75
2024/04/24 14:27:13;;;;;;;2.55;1.58;;;;;;;15.54;59.69;99337.78;5275773;27;20478;-76
2024/04/24 14:30:17;;;;;;;3.67;1.50;;;;;;;15.44;58.66;99326.41;5275989;27;20034;-76
2024/04/24 14:33:22;;;;;;;3.63;1.40;;;;;;;15.51;59.49;99321.94;5275574;27;20034;-75
2024/04/24 14:36:27;;;;;;;2.42;1.50;;;;;;;15.64;60.64;99324.78;5275630;27;20038;-76
2024/04/24 14:39:32;;;;;;;2.20;1.40;;;;;;;15.71;61.08;99317.56;5275751;27;20429;-75
2024/04/24 14:42:36;;;;;;;4.22;1.55;;;;;;;15.51;61.46;99324.63;5275355;27;20079;-75